createdAt,value
2018-02-16T00:01:27.029Z,87.46
2018-02-16T00:03:55.361Z,87.97
2018-02-16T00:06:23.754Z,87.74
2018-02-16T00:08:52.136Z,87.36
2018-02-16T00:11:20.689Z,87.61
2018-02-16T00:13:49.004Z,87.73
2018-02-16T00:16:17.336Z,87.48
2018-02-16T00:18:45.637Z,88.07
2018-02-16T00:21:14.018Z,87.57
2018-02-16T00:23:42.326Z,87.62
2018-02-16T00:26:10.679Z,87.43
2018-02-16T00:28:39.063Z,87.83
2018-02-16T00:31:07.528Z,88.00
2018-02-16T00:33:35.836Z,88.35
2018-02-16T00:36:04.302Z,88.89
2018-02-16T00:38:32.584Z,88.68
2018-02-16T00:41:00.903Z,88.92
2018-02-16T00:43:29.216Z,88.63
2018-02-16T00:45:57.553Z,89.40
2018-02-16T00:48:25.950Z,89.13
2018-02-16T00:50:54.863Z,88.86
2018-02-16T00:53:23.332Z,89.35
2018-02-16T00:55:51.641Z,89.45
2018-02-16T00:58:19.936Z,89.43
2018-02-16T01:00:48.273Z,89.81
2018-02-16T01:03:16.631Z,89.28
2018-02-16T01:05:45.132Z,90.04
2018-02-16T01:08:13.409Z,89.86
2018-02-16T01:10:41.728Z,89.44
2018-02-16T01:13:10.012Z,89.64
2018-02-16T01:15:38.448Z,89.59
2018-02-16T01:18:06.800Z,89.76
2018-02-16T01:20:35.206Z,89.85
2018-02-16T01:23:03.640Z,89.60
2018-02-16T01:25:31.945Z,89.79
2018-02-16T01:28:00.232Z,89.54
2018-02-16T01:30:28.568Z,90.05
2018-02-16T01:32:56.990Z,90.31
2018-02-16T01:35:25.421Z,90.43
2018-02-16T01:37:54.016Z,90.88
2018-02-16T01:40:22.332Z,90.93
2018-02-16T01:42:50.630Z,90.88
2018-02-16T01:45:19.085Z,90.42
2018-02-16T01:47:47.550Z,90.28
2018-02-16T01:50:15.893Z,90.33
2018-02-16T01:52:44.216Z,90.23
2018-02-16T01:55:12.526Z,89.75
2018-02-16T01:57:40.812Z,89.79
2018-02-16T02:00:09.133Z,89.92
2018-02-16T02:02:37.547Z,89.70
2018-02-16T02:05:05.921Z,89.83
2018-02-16T02:07:34.242Z,89.38
2018-02-16T02:10:02.533Z,89.58
2018-02-16T02:12:30.877Z,89.55
2018-02-16T02:14:59.192Z,89.36
2018-02-16T02:17:27.808Z,89.84
2018-02-16T02:19:56.245Z,89.42
2018-02-16T02:22:24.627Z,89.66
2018-02-16T02:24:52.982Z,89.82
2018-02-16T02:27:21.424Z,89.48
2018-02-16T02:29:49.697Z,89.84
2018-02-16T02:32:18.174Z,90.31
2018-02-16T02:34:46.489Z,89.66
2018-02-16T02:37:14.855Z,89.59
2018-02-16T02:39:43.224Z,89.33
2018-02-16T02:42:11.588Z,88.96
2018-02-16T02:44:39.892Z,88.96
2018-02-16T02:47:08.237Z,89.44
2018-02-16T02:49:36.535Z,89.32
2018-02-16T02:52:04.947Z,89.73
2018-02-16T02:54:33.375Z,89.32
2018-02-16T02:57:01.814Z,88.73
2018-02-16T02:59:30.513Z,88.80
2018-02-16T03:01:58.849Z,88.77
2018-02-16T03:04:27.120Z,89.03
2018-02-16T03:06:55.477Z,89.02
2018-02-16T03:09:23.841Z,89.12
2018-02-16T03:11:52.324Z,89.44
2018-02-16T03:14:20.595Z,88.61
2018-02-16T03:16:48.927Z,89.00
2018-02-16T03:19:17.221Z,89.04
2018-02-16T03:21:45.673Z,88.86
2018-02-16T03:24:13.993Z,89.13
2018-02-16T03:26:42.512Z,89.52
2018-02-16T03:29:10.820Z,89.46
2018-02-16T03:31:39.161Z,89.72
2018-02-16T03:34:07.457Z,89.92
2018-02-16T03:36:36.642Z,89.64
2018-02-16T03:39:05.767Z,89.68
2018-02-16T03:41:34.155Z,89.38
2018-02-16T03:44:02.482Z,89.22
2018-02-16T03:46:31.448Z,89.44
2018-02-16T03:48:59.840Z,89.53
2018-02-16T03:51:28.222Z,89.49
2018-02-16T03:53:56.715Z,89.87
2018-02-16T03:56:25.198Z,90.73
2018-02-16T03:58:53.508Z,90.54
2018-02-16T04:01:21.863Z,90.67
2018-02-16T04:03:50.284Z,91.02
2018-02-16T04:06:18.605Z,90.79
2018-02-16T04:08:47.248Z,91.03
2018-02-16T04:11:15.606Z,91.12
2018-02-16T04:13:43.932Z,91.13
2018-02-16T04:16:12.337Z,91.50
2018-02-16T04:18:40.628Z,91.46
2018-02-16T04:21:08.973Z,92.08
2018-02-16T04:23:37.362Z,91.97
2018-02-16T04:26:05.824Z,92.36
2018-02-16T04:31:08.633Z,92.36
2018-02-16T04:33:36.928Z,92.73
2018-02-16T04:36:05.298Z,92.62
2018-02-16T04:38:33.593Z,92.70
2018-02-16T04:41:01.971Z,93.05
2018-02-16T04:43:30.280Z,93.17
2018-02-16T04:45:58.635Z,93.40
2018-02-16T04:48:27.044Z,93.37
2018-02-16T04:50:55.352Z,93.64
2018-02-16T04:53:23.837Z,94.07
2018-02-16T04:55:52.181Z,94.11
2018-02-16T04:58:20.509Z,94.18
2018-02-16T05:03:44.907Z,94.55
2018-02-16T05:06:13.798Z,94.48
2018-02-16T05:08:42.555Z,94.53
2018-02-16T05:11:11.238Z,94.65
2018-02-16T05:13:39.752Z,94.45
2018-02-16T05:16:08.405Z,94.79
2018-02-16T05:18:37.212Z,94.78
2018-02-16T05:21:05.713Z,94.87
2018-02-16T05:23:34.147Z,94.88
2018-02-16T05:26:02.710Z,94.77
2018-02-16T05:28:31.427Z,94.53
2018-02-16T05:31:00.278Z,94.56
2018-02-16T05:33:28.947Z,94.33
2018-02-16T05:35:57.439Z,94.27
2018-02-16T05:38:25.932Z,94.55
2018-02-16T05:40:54.775Z,94.54
2018-02-16T05:43:24.013Z,94.53
2018-02-16T05:45:52.579Z,94.49
2018-02-16T05:48:21.934Z,94.42
2018-02-16T05:50:50.594Z,94.14
2018-02-16T05:53:19.141Z,94.07
2018-02-16T05:55:47.987Z,94.07
2018-02-16T05:58:16.511Z,93.90
2018-02-16T06:00:45.051Z,93.67
2018-02-16T06:03:13.562Z,94.00
2018-02-16T06:05:42.135Z,93.99
2018-02-16T06:08:10.591Z,93.50
2018-02-16T06:10:39.041Z,93.29
2018-02-16T06:13:07.650Z,93.65
2018-02-16T06:15:37.063Z,93.29
2018-02-16T06:18:05.631Z,93.25
2018-02-16T06:20:34.303Z,92.92
2018-02-16T06:23:03.281Z,92.87
2018-02-16T06:25:32.094Z,92.45
2018-02-16T06:28:01.439Z,92.30
2018-02-16T06:30:30.626Z,92.32
2018-02-16T06:32:59.430Z,92.29
2018-02-16T06:35:28.354Z,92.14
2018-02-16T06:37:57.826Z,92.10
2018-02-16T06:40:26.328Z,91.70
2018-02-16T06:42:55.006Z,91.72
2018-02-16T06:45:23.766Z,91.00
2018-02-16T06:47:53.247Z,90.76
2018-02-16T06:50:22.799Z,90.80
2018-02-16T06:52:51.391Z,90.78
2018-02-16T06:55:19.964Z,90.11
2018-02-16T06:57:48.665Z,90.44
2018-02-16T07:00:17.312Z,90.24
2018-02-16T07:02:45.755Z,89.88
2018-02-16T07:05:14.302Z,89.64
2018-02-16T07:07:43.123Z,89.24
2018-02-16T07:10:13.507Z,88.91
2018-02-16T07:12:42.298Z,87.81
2018-02-16T07:15:10.959Z,87.24
2018-02-16T07:17:39.868Z,86.48
2018-02-16T07:20:09.354Z,86.52
2018-02-16T07:22:38.190Z,86.15
2018-02-16T07:25:06.717Z,85.97
2018-02-16T07:27:36.287Z,86.20
2018-02-16T07:30:05.341Z,85.59
2018-02-16T07:32:34.169Z,84.54
2018-02-16T07:35:03.763Z,82.47
2018-02-16T07:37:32.425Z,82.15
2018-02-16T07:40:00.851Z,82.66
2018-02-16T07:42:29.756Z,82.80
2018-02-16T07:44:58.246Z,83.20
2018-02-16T07:47:27.939Z,82.72
2018-02-16T07:49:56.899Z,82.33
2018-02-16T07:52:25.735Z,81.80
2018-02-16T07:54:54.383Z,81.84
2018-02-16T07:57:24.980Z,81.10
2018-02-16T07:59:54.828Z,80.60
2018-02-16T08:02:23.936Z,80.73
2018-02-16T08:04:52.840Z,80.75
2018-02-16T08:07:21.968Z,79.56
2018-02-16T08:09:50.710Z,79.26
2018-02-16T08:12:19.370Z,78.83
2018-02-16T08:14:47.990Z,78.04
2018-02-16T08:17:16.748Z,77.38
2018-02-16T08:19:46.369Z,76.81
2018-02-16T08:22:15.763Z,76.24
2018-02-16T08:24:46.247Z,75.56
2018-02-16T08:27:16.158Z,73.90
2018-02-16T08:29:46.720Z,72.61
2018-02-16T08:32:17.530Z,72.28
2018-02-16T08:34:47.038Z,71.38
2018-02-16T08:37:17.661Z,70.50
2018-02-16T08:39:48.895Z,70.66
2018-02-16T08:42:20.320Z,69.87
2018-02-16T08:44:51.094Z,67.97
2018-02-16T08:47:19.956Z,67.56
2018-02-16T08:49:48.954Z,66.68
2018-02-16T08:52:21.151Z,66.39
2018-02-16T08:54:49.802Z,66.90
2018-02-16T08:57:19.103Z,66.79
2018-02-16T08:59:52.117Z,65.99
2018-02-16T09:02:21.043Z,66.33
2018-02-16T09:04:50.711Z,65.84
2018-02-16T09:07:20.530Z,65.32
2018-02-16T09:09:49.150Z,64.42
2018-02-16T09:12:17.838Z,63.90
2018-02-16T09:14:46.732Z,63.63
2018-02-16T09:17:15.733Z,63.29
2018-02-16T09:19:44.727Z,62.70
2018-02-16T09:22:13.961Z,63.33
2018-02-16T09:24:42.835Z,62.73
2018-02-16T09:27:11.704Z,62.23
2018-02-16T09:29:40.200Z,63.27
2018-02-16T09:32:09.950Z,62.01
2018-02-16T09:37:13.615Z,61.26
2018-02-16T09:39:44.933Z,61.89
2018-02-16T09:44:51.266Z,61.24
2018-02-16T09:47:20.162Z,61.21
2018-02-16T09:49:48.847Z,60.53
2018-02-16T09:52:19.022Z,60.63
2018-02-16T09:54:47.597Z,61.46
2018-02-16T09:57:16.326Z,61.08
2018-02-16T09:59:45.988Z,60.71
2018-02-16T10:02:17.103Z,61.22
2018-02-16T10:04:45.668Z,60.98
2018-02-16T10:07:15.096Z,59.75
2018-02-16T10:09:44.362Z,60.00
2018-02-16T10:12:15.647Z,59.47
2018-02-16T10:14:45.075Z,59.39
2018-02-16T10:17:14.847Z,58.49
2018-02-16T10:19:43.616Z,59.09
2018-02-16T10:22:13.220Z,61.29
2018-02-16T10:24:42.134Z,60.12
2018-02-16T10:27:10.888Z,59.19
2018-02-16T10:29:40.079Z,59.29
2018-02-16T10:32:09.509Z,57.86
2018-02-16T10:34:41.479Z,57.00
2018-02-16T10:37:10.940Z,55.85
2018-02-16T10:39:40.724Z,56.11
2018-02-16T10:42:09.602Z,55.99
2018-02-16T10:44:38.227Z,56.70
2018-02-16T10:47:08.481Z,57.90
2018-02-16T10:49:38.600Z,58.11
2018-02-16T10:53:06.721Z,59.99
2018-02-16T10:55:35.681Z,58.82
2018-02-16T10:58:04.508Z,60.16
2018-02-16T11:00:38.153Z,60.73
2018-02-16T11:03:12.064Z,61.63
2018-02-16T11:05:45.475Z,60.80
2018-02-16T11:08:18.379Z,61.24
2018-02-16T11:10:47.343Z,59.41
2018-02-16T11:13:16.215Z,60.91
2018-02-16T11:15:45.132Z,58.59
2018-02-16T11:18:15.624Z,59.10
2018-02-16T11:20:44.604Z,61.12
2018-02-16T11:23:13.315Z,59.71
2018-02-16T11:25:42.422Z,60.06
2018-02-16T11:28:11.037Z,61.56
2018-02-16T11:30:39.921Z,62.05
2018-02-16T11:33:08.755Z,58.97
2018-02-16T11:35:37.234Z,59.95
2018-02-16T11:38:07.478Z,61.83
2018-02-16T11:40:36.263Z,61.41
2018-02-16T11:43:05.462Z,62.15
2018-02-16T11:45:34.520Z,63.44
2018-02-16T11:48:03.896Z,62.96
2018-02-16T11:50:32.965Z,63.20
2018-02-16T11:53:02.202Z,56.23
2018-02-16T11:55:34.876Z,62.69
2018-02-16T11:58:03.571Z,64.26
2018-02-16T12:00:32.536Z,50.88
2018-02-16T12:03:01.715Z,53.32
2018-02-16T12:05:30.301Z,53.41
2018-02-16T12:07:59.499Z,57.10
2018-02-16T12:10:28.494Z,59.22
2018-02-16T12:12:57.407Z,57.81
2018-02-16T12:15:26.504Z,53.45
2018-02-16T12:17:55.600Z,55.77
2018-02-16T12:20:24.679Z,56.81
2018-02-16T12:22:53.373Z,58.91
2018-02-16T12:25:22.489Z,60.84
2018-02-16T12:27:51.360Z,62.16
2018-02-16T12:30:22.919Z,62.42
2018-02-16T12:32:52.014Z,63.19
2018-02-16T12:35:21.731Z,62.60
2018-02-16T12:37:50.714Z,60.58
2018-02-16T12:40:21.663Z,62.38
2018-02-16T12:42:50.377Z,64.03
2018-02-16T12:45:19.051Z,58.30
2018-02-16T12:47:48.892Z,61.00
2018-02-16T12:50:18.619Z,62.19
2018-02-16T12:52:48.127Z,63.48
2018-02-16T12:55:18.299Z,62.95
2018-02-16T12:57:47.163Z,64.44
2018-02-16T13:00:16.819Z,62.74
2018-02-16T13:02:45.798Z,63.83
2018-02-16T13:05:14.312Z,64.57
2018-02-16T13:07:43.511Z,61.49
2018-02-16T13:10:13.315Z,63.44
2018-02-16T13:12:42.246Z,64.32
2018-02-16T13:15:10.988Z,64.80
2018-02-16T13:17:39.636Z,64.22
2018-02-16T13:20:08.979Z,63.64
2018-02-16T13:22:39.703Z,63.79
2018-02-16T13:25:09.771Z,63.78
2018-02-16T13:27:41.558Z,59.30
2018-02-16T13:30:18.932Z,57.25
2018-02-16T13:32:48.689Z,55.65
2018-02-16T13:35:18.307Z,54.92
2018-02-16T13:37:47.023Z,54.31
2018-02-16T13:40:17.003Z,45.98
2018-02-16T13:42:48.139Z,43.56
2018-02-16T13:45:17.299Z,43.17
2018-02-16T13:47:48.232Z,43.73
2018-02-16T13:50:18.574Z,45.80
2018-02-16T13:52:51.964Z,49.73
2018-02-16T13:55:24.650Z,47.02
2018-02-16T13:57:54.004Z,47.41
2018-02-16T14:00:24.067Z,44.60
2018-02-16T14:02:56.994Z,41.24
2018-02-16T14:05:27.050Z,45.38
2018-02-16T14:07:57.737Z,45.13
2018-02-16T14:10:26.741Z,48.17
2018-02-16T14:12:56.389Z,50.96
2018-02-16T14:15:28.029Z,52.13
2018-02-16T14:17:57.325Z,51.49
2018-02-16T14:20:27.584Z,50.61
2018-02-16T14:22:58.852Z,51.84
2018-02-16T14:25:29.904Z,52.82
2018-02-16T14:28:01.036Z,53.31
2018-02-16T14:30:32.844Z,53.56
2018-02-16T14:33:02.623Z,53.15
2018-02-16T14:35:32.889Z,53.42
2018-02-16T14:38:09.352Z,53.09
2018-02-16T14:40:38.777Z,53.03
2018-02-16T14:43:07.514Z,52.35
2018-02-16T14:45:37.104Z,52.71
2018-02-16T14:48:07.061Z,54.10
2018-02-16T14:50:39.439Z,53.30
2018-02-16T14:53:09.318Z,53.20
2018-02-16T14:55:39.369Z,54.08
2018-02-16T14:58:08.753Z,55.49
2018-02-16T15:00:43.150Z,54.53
2018-02-16T15:03:13.786Z,55.92
2018-02-16T15:05:43.728Z,56.46
2018-02-16T15:08:12.847Z,57.57
2018-02-16T15:10:44.268Z,57.62
2018-02-16T15:13:14.086Z,58.70
2018-02-16T15:15:43.281Z,59.37
2018-02-16T15:18:14.537Z,59.06
2018-02-16T15:20:44.757Z,59.26
2018-02-16T15:23:15.673Z,59.61
2018-02-16T15:25:46.785Z,60.60
2018-02-16T15:28:17.540Z,60.51
2018-02-16T15:30:46.899Z,61.46
2018-02-16T15:33:15.548Z,61.54
2018-02-16T15:35:45.015Z,61.80
2018-02-16T15:38:15.477Z,62.63
2018-02-16T15:40:44.312Z,62.41
2018-02-16T15:43:13.800Z,62.83
2018-02-16T15:45:42.862Z,63.52
2018-02-16T15:48:13.444Z,62.10
2018-02-16T15:50:43.910Z,62.11
2018-02-16T15:53:12.767Z,63.27
2018-02-16T15:55:41.278Z,63.67
2018-02-16T15:58:10.730Z,64.27
2018-02-16T16:00:40.683Z,64.97
2018-02-16T16:03:13.686Z,65.41
2018-02-16T16:05:44.329Z,66.04
2018-02-16T16:08:14.741Z,66.21
2018-02-16T16:10:45.139Z,66.46
2018-02-16T16:13:16.314Z,67.03
2018-02-16T16:15:48.368Z,67.86
2018-02-16T16:18:18.455Z,68.16
2018-02-16T16:20:48.033Z,68.45
2018-02-16T16:23:17.507Z,67.86
2018-02-16T16:25:48.771Z,68.32
2018-02-16T16:28:23.113Z,68.10
2018-02-16T16:30:55.337Z,68.62
2018-02-16T16:33:28.127Z,68.77
2018-02-16T16:35:57.983Z,68.53
2018-02-16T16:38:28.161Z,68.94
2018-02-16T16:40:58.694Z,69.72
2018-02-16T16:43:29.290Z,69.59
2018-02-16T16:46:00.505Z,70.06
2018-02-16T16:48:29.963Z,70.70
2018-02-16T16:51:00.351Z,70.37
2018-02-16T16:53:30.402Z,70.65
2018-02-16T16:56:00.484Z,70.91
2018-02-16T16:58:32.417Z,70.80
2018-02-16T17:01:01.798Z,71.25
2018-02-16T17:03:30.415Z,71.09
2018-02-16T17:05:59.743Z,71.45
2018-02-16T17:08:29.267Z,71.29
2018-02-16T17:10:59.608Z,71.94
2018-02-16T17:13:28.540Z,72.08
2018-02-16T17:15:57.194Z,72.19
2018-02-16T17:18:26.818Z,71.85
2018-02-16T17:20:55.967Z,72.53
2018-02-16T17:23:24.904Z,72.58
2018-02-16T17:25:55.356Z,72.92
2018-02-16T17:28:25.333Z,72.71
2018-02-16T17:30:58.315Z,72.70
2018-02-16T17:33:27.548Z,72.74
2018-02-16T17:35:56.265Z,73.14
2018-02-16T17:38:25.667Z,73.34
2018-02-16T17:40:54.375Z,73.08
2018-02-16T17:43:23.439Z,73.19
2018-02-16T17:45:52.765Z,73.33
2018-02-16T17:48:21.534Z,74.45
2018-02-16T17:50:50.585Z,75.07
2018-02-16T17:53:20.319Z,75.36
2018-02-16T17:55:50.245Z,75.88
2018-02-16T17:58:22.457Z,75.05
2018-02-16T18:00:52.600Z,75.69
2018-02-16T18:03:23.324Z,76.66
2018-02-16T18:05:55.757Z,76.77
2018-02-16T18:08:24.424Z,76.38
2018-02-16T18:10:54.298Z,76.48
2018-02-16T18:13:24.819Z,76.27
2018-02-16T18:15:54.116Z,77.46
2018-02-16T18:18:23.404Z,77.51
2018-02-16T18:20:54.455Z,77.66
2018-02-16T18:23:26.895Z,77.40
2018-02-16T18:25:56.800Z,77.10
2018-02-16T18:28:25.248Z,77.08
2018-02-16T18:30:54.229Z,76.23
2018-02-16T18:33:23.702Z,76.87
2018-02-16T18:35:53.447Z,77.18
2018-02-16T18:38:23.313Z,77.23
2018-02-16T18:40:53.847Z,76.73
2018-02-16T18:43:23.880Z,77.34
2018-02-16T18:45:53.471Z,77.43
2018-02-16T18:48:22.531Z,78.06
2018-02-16T18:50:51.928Z,78.58
2018-02-16T18:53:21.828Z,78.56
2018-02-16T18:55:52.763Z,78.06
2018-02-16T18:58:24.844Z,78.85
2018-02-16T19:00:57.266Z,78.59
2018-02-16T19:03:27.238Z,77.88
2018-02-16T19:05:56.326Z,78.29
2018-02-16T19:08:28.239Z,78.17
2018-02-16T19:11:00.342Z,78.78
2018-02-16T19:13:32.532Z,79.48
2018-02-16T19:16:02.223Z,79.46
2018-02-16T19:18:31.889Z,79.61
2018-02-16T19:21:02.448Z,79.25
2018-02-16T19:23:31.898Z,79.74
2018-02-16T19:26:01.987Z,80.09
2018-02-16T19:28:31.286Z,80.36
2018-02-16T19:31:00.224Z,80.17
2018-02-16T19:33:29.549Z,80.63
2018-02-16T19:35:58.903Z,81.21
2018-02-16T19:38:29.374Z,80.80
2018-02-16T19:40:59.723Z,81.15
2018-02-16T19:43:30.700Z,80.50
2018-02-16T19:46:00.334Z,81.02
2018-02-16T19:48:30.364Z,81.00
2018-02-16T19:51:02.120Z,81.24
2018-02-16T19:53:30.947Z,81.08
2018-02-16T19:56:00.845Z,81.23
2018-02-16T19:58:32.971Z,81.57
2018-02-16T20:01:02.801Z,81.79
2018-02-16T20:03:31.742Z,81.90
2018-02-16T20:06:01.908Z,82.05
2018-02-16T20:08:32.371Z,82.05
2018-02-16T20:11:07.029Z,82.28
2018-02-16T20:13:57.814Z,82.54
2018-02-16T20:16:35.293Z,82.69
2018-02-16T20:19:04.503Z,83.01
2018-02-16T20:21:50.516Z,83.04
2018-02-16T20:24:26.029Z,82.92
